Latest Weather Observations for Singleton (Defence)

IDN60801

Issued at 6:23 pm EST Saturday 9 May 2026 (issued every 10 minutes, with the page automatically refreshed every 10 minutes)

About weather observations | Map of weather stations | Latest weather observations for NSW | Other Formats
Station Details ID: 061430 Name: SINGLETON DEFENCE AWS Lat: -32.70 Lon: 151.16 Height: 125.0 m
Data from the previous 72 hours. | See also: Recent months for locations in New South Wales
Date/Time
EST
Temp
°C
App
Temp
°C
Dew
Point
°C
Rel
Hum
%
Delta-T
°C
Wind Press
QNH
hPa
Press
MSL
hPa
Rain since
9am
mm
Dir  Spd
km/h
Gust
km/h
Spd
kts
Gust
kts
09/06:00pm 16.6 13.8 8.6 59 4.1 E 13 19 7 10 - - 0.0
09/05:30pm 17.8 15.5 5.7 45 5.9 NNE 7 9 4 5 - - 0.0
09/05:00pm 19.6 17.3 5.6 40 6.9 N 7 9 4 5 - - 0.0
09/04:30pm 21.0 18.7 5.8 37 7.6 N 7 11 4 6 - - 0.0
09/04:00pm 21.7 19.6 5.6 35 8.1 N 6 9 3 5 - - 0.0
09/03:30pm 22.1 19.5 5.9 35 8.2 NNE 9 11 5 6 - - 0.0
09/03:00pm 22.1 19.9 5.5 34 8.3 N 6 11 3 6 - - 0.0
09/02:30pm 22.3 20.0 5.7 34 8.4 NNW 7 15 4 8 - - 0.0
09/02:00pm 22.6 20.4 6.0 34 8.4 N 7 13 4 7 - - 0.0
09/01:30pm 22.6 21.3 6.0 34 8.4 NNW 2 11 1 6 - - 0.0
09/01:00pm 21.1 18.9 6.2 38 7.5 N 7 13 4 7 - - 0.0
09/12:30pm 21.6 19.8 7.1 39 7.5 NW 6 11 3 6 - - 0.0
09/12:00pm 20.5 19.0 6.8 41 7.0 WSW 4 15 2 8 - - 0.0
09/11:30am 19.3 17.2 6.8 44 6.3 NNW 7 11 4 6 - - 0.0
09/11:00am 18.8 16.9 6.9 46 6.0 WNW 6 13 3 7 - - 0.0
09/10:30am 17.5 15.5 7.0 50 5.3 WNW 7 13 4 7 - - 0.0
09/10:00am 16.2 13.8 7.2 55 4.5 NW 9 13 5 7 - - 0.0
09/09:30am 15.1 13.1 7.2 59 3.9 NW 7 11 4 6 - - 0.0
09/09:00am 13.1 10.6 6.7 65 3.1 WNW 9 11 5 6 - - 0.0
09/08:30am 11.4 8.8 6.3 71 2.4 WNW 9 11 5 6 - - 0.0
09/08:00am 9.9 8.2 6.1 77 1.8 WSW 4 6 2 3 - - 0.0
09/07:30am 7.9 6.1 5.5 85 1.1 WSW 4 7 2 4 - - 0.0
09/07:00am 7.5 5.3 5.5 87 0.9 WSW 6 6 3 3 - - 0.0
09/06:30am 6.8 4.4 5.1 89 0.8 WSW 7 9 4 5 - - 0.0
09/06:00am 6.6 5.1 4.8 88 0.8 WSW 2 6 1 3 - - 0.0
09/05:30am 7.8 5.4 5.1 83 1.2 WSW 7 9 4 5 - - 0.0
09/05:00am 7.7 4.9 5.2 84 1.1 W 9 11 5 6 - - 0.0
09/04:30am 7.7 4.9 5.2 84 1.1 WSW 9 11 5 6 - - 0.0
09/04:00am 8.3 5.9 5.1 80 1.4 WSW 7 7 4 4 - - 0.0
09/03:30am 8.6 6.2 5.2 79 1.5 WSW 7 7 4 4 - - 0.0
09/03:00am 8.6 6.3 5.0 78 1.6 WSW 6 7 3 4 - - 0.0
09/02:30am 8.8 7.7 5.0 77 1.7 CALM 0 2 0 1 - - 0.0
09/02:00am 9.3 6.8 4.9 74 2.0 W 7 11 4 6 - - 0.0
09/01:30am 10.2 7.0 5.0 70 2.4 W 11 13 6 7 - - 0.0
09/01:00am 10.6 7.4 5.2 69 2.5 W 11 13 6 7 - - 0.0
09/12:30am 10.5 8.3 5.3 70 2.4 WNW 6 7 3 4 - - 0.0
09/12:00am 11.1 8.6 5.0 66 2.8 W 7 7 4 4 - - 0.0
 
Date/Time
EST
Temp
°C
App
Temp
°C
Dew
Point
°C
Rel
Hum
%
Delta-T
°C
Wind Press
QNH
hPa
Press
MSL
hPa
Rain since
9am
mm
Dir  Spd
km/h
Gust
km/h
Spd
kts
Gust
kts
08/11:30pm 11.6 9.4 5.5 66 2.8 W 6 6 3 3 - - 0.0
08/11:00pm 11.6 8.8 5.3 65 2.9 W 9 11 5 6 - - 0.0
08/10:30pm 12.9 10.1 5.3 60 3.6 WNW 9 13 5 7 - - 0.0
08/10:00pm 12.7 10.0 5.4 61 3.4 WNW 9 11 5 6 - - 0.0
08/09:30pm 13.2 10.5 5.4 59 3.7 W 9 11 5 6 - - 0.0
08/09:00pm 13.6 9.7 5.3 57 3.9 SW 15 19 8 10 - - 0.0
08/08:30pm 13.8 10.6 5.2 56 4.0 WSW 11 15 6 8 - - 0.0
08/08:00pm 13.9 10.3 5.0 55 4.2 SW 13 20 7 11 - - 0.0
08/07:30pm 14.4 11.6 5.0 53 4.4 WSW 9 15 5 8 - - 0.0
08/07:00pm 14.6 11.7 4.6 51 4.7 WSW 9 15 5 8 - - 0.0
08/06:30pm 15.0 10.9 4.4 49 5.0 WSW 15 20 8 11 - - 0.0
08/06:00pm 15.9 10.8 4.0 45 5.6 WSW 20 30 11 16 - - 0.0
08/05:30pm 16.8 12.5 3.5 41 6.2 WSW 15 22 8 12 - - 0.0
08/05:00pm 17.9 13.2 3.0 37 6.9 WSW 17 26 9 14 - - 0.0
08/04:30pm 19.3 14.0 3.1 34 7.6 WSW 20 32 11 17 - - 0.0
08/04:00pm 20.2 15.1 3.0 32 8.1 WSW 19 30 10 16 - - 0.0
08/03:30pm 20.7 15.0 3.0 31 8.4 W 22 32 12 17 - - 0.0
08/03:00pm 20.9 15.2 2.7 30 8.6 WSW 22 33 12 18 - - 0.0
08/02:30pm 20.8 14.3 2.6 30 8.6 W 26 37 14 20 - - 0.0
08/02:00pm 21.2 16.0 2.5 29 8.8 W 19 32 10 17 - - 0.0
08/01:30pm 20.4 15.4 3.6 33 8.0 NW 19 28 10 15 - - 0.0
08/01:00pm 19.4 14.2 3.6 35 7.5 NNW 20 33 11 18 - - 0.0
08/12:30pm 18.4 12.1 3.5 37 7.0 NNW 26 39 14 21 - - 0.0
08/12:00pm 18.2 13.0 3.7 38 6.8 NW 20 30 11 16 - - 0.0
08/11:30am 16.7 11.1 3.4 41 6.2 NNW 22 30 12 16 - - 0.0
08/11:00am 16.0 11.3 3.4 43 5.8 NW 17 28 9 15 - - 0.0
08/10:30am 15.1 10.0 3.0 44 5.5 NW 19 28 10 15 - - 0.0
08/10:00am 14.0 8.7 2.9 47 5.0 NNW 20 28 11 15 - - 0.0
08/09:30am 12.5 7.7 2.7 51 4.3 NW 17 24 9 13 - - 0.0
08/09:00am 11.4 6.9 2.4 54 3.9 NW 15 22 8 12 - - 0.0
08/08:30am 10.5 6.4 2.1 56 3.6 NW 13 26 7 14 - - 0.0
08/08:00am 9.2 5.8 1.9 60 3.1 NW 9 17 5 9 - - 0.0
08/07:30am 8.1 4.7 1.7 64 2.6 NW 9 11 5 6 - - 0.0
08/07:00am 6.8 2.9 1.1 67 2.3 WNW 11 15 6 8 - - 0.0
08/06:30am 6.5 2.2 0.8 67 2.3 WNW 13 19 7 10 - - 0.0
08/06:00am 6.6 2.3 0.7 66 2.3 WNW 13 17 7 9 - - 0.0
08/05:30am 6.5 2.9 0.6 66 2.3 WNW 9 15 5 8 - - 0.0
08/05:00am 6.5 2.9 0.4 65 2.4 WNW 9 15 5 8 - - 0.0
08/04:30am 6.7 3.4 0.2 63 2.6 WNW 7 11 4 6 - - 0.0
08/04:00am 6.7 2.6 -0.1 62 2.6 WNW 11 13 6 7 - - 0.0
08/03:30am 7.2 3.5 0.0 60 2.8 NW 9 13 5 7 - - 0.0
08/03:00am 7.3 3.5 -0.4 58 3.0 NW 9 13 5 7 - - 0.0
08/02:30am 7.7 4.5 -0.8 55 3.3 WNW 6 9 3 5 - - 0.0
08/02:00am 7.9 4.6 -1.1 53 3.5 WNW 6 6 3 3 - - 0.0
08/01:30am 8.0 5.1 -1.0 53 3.5 WNW 4 6 2 3 - - 0.0
08/01:00am 8.1 5.2 -1.4 51 3.6 WNW 4 7 2 4 - - 0.0
08/12:30am 8.8 3.8 -1.3 49 3.9 W 15 19 8 10 - - 0.0
08/12:00am 8.5 3.9 -1.3 50 3.8 W 13 19 7 10 - - 0.0
 
Date/Time
EST
Temp
°C
App
Temp
°C
Dew
Point
°C
Rel
Hum
%
Delta-T
°C
Wind Press
QNH
hPa
Press
MSL
hPa
Rain since
9am
mm
Dir  Spd
km/h
Gust
km/h
Spd
kts
Gust
kts
07/11:30pm 8.7 4.1 -1.4 49 3.9 W 13 17 7 9 - - 0.0
07/11:00pm 9.4 4.7 -1.6 46 4.3 WSW 13 19 7 10 - - 0.0
07/10:30pm 9.3 4.6 -1.7 46 4.2 WSW 13 19 7 10 - - 0.0
07/10:00pm 9.5 5.2 -1.8 45 4.4 WSW 11 13 6 7 - - 0.0
07/09:30pm 10.0 4.9 -2.3 42 4.7 WSW 15 24 8 13 - - 0.0
07/09:00pm 10.3 5.5 -2.4 41 4.9 W 13 20 7 11 - - 0.0
07/08:30pm 9.9 5.5 -2.7 41 4.8 WSW 11 15 6 8 - - 0.0
07/08:00pm 10.3 6.6 -3.0 39 5.0 W 7 9 4 5 - - 0.0
07/07:30pm 10.9 6.7 -3.6 36 5.4 W 9 11 5 6 - - 0.0
07/07:00pm 11.8 6.9 -3.5 34 5.8 WSW 13 19 7 10 - - 0.0
07/06:30pm 12.4 7.1 -3.8 32 6.2 WSW 15 30 8 16 - - 0.0
07/06:00pm 12.9 7.1 -4.2 30 6.5 WSW 17 28 9 15 - - 0.0
07/05:30pm 13.4 6.3 -4.7 28 6.8 SW 24 39 13 21 - - 0.0
07/05:18pm 13.6 5.7 -4.5 28 6.9 WSW 28 50 15 27 - - 0.0
07/05:00pm 14.2 6.7 -5.0 26 7.3 WSW 26 43 14 23 - - 0.0
07/04:30pm 14.7 6.8 -5.1 25 7.5 SW 28 43 15 23 - - 0.0
07/04:00pm 15.6 8.0 -5.4 23 8.0 WSW 26 44 14 24 - - 0.0
07/03:36pm 15.9 7.8 -7.0 20 8.4 WSW 28 46 15 25 - - 0.0
07/03:30pm 16.2 8.9 -6.8 20 8.5 SW 24 37 13 20 - - 0.0
07/03:00pm 16.4 7.3 -7.3 19 8.7 WSW 33 52 18 28 - - 0.0
07/02:30pm 17.0 8.6 -6.1 20 8.8 WSW 30 50 16 27 - - 0.0
07/02:00pm 16.9 6.6 -7.5 18 9.0 SW 39 57 21 31 - - 0.0
07/01:32pm 16.7 8.9 -0.5 31 7.3 SW 30 50 16 27 - - 0.0
07/01:30pm 16.9 9.2 -0.3 31 7.4 SW 30 43 16 23 - - 0.0
07/01:00pm 17.2 11.0 6.1 48 5.5 NW 28 41 15 22 - - 0.0
07/12:30pm 16.9 11.4 5.8 48 5.4 NW 24 35 13 19 - - 0.0
07/12:00pm 17.1 10.9 6.3 49 5.3 NW 28 43 15 23 - - 0.0
07/11:30am 17.4 10.9 6.6 49 5.4 NW 30 43 16 23 - - 0.0
07/11:00am 18.1 12.4 6.9 48 5.6 NW 26 37 14 20 - - 0.0
07/10:30am 16.4 11.6 7.3 55 4.6 NNW 22 37 12 20 - - 0.0
07/10:00am 15.8 10.2 7.3 57 4.2 NNW 26 35 14 19 - - 0.0
07/09:30am 15.2 9.7 7.5 60 3.8 NW 26 35 14 19 - - 0.0
07/09:00am 14.3 9.2 7.6 64 3.3 NW 24 35 13 19 - - 0.0
07/08:30am 13.8 9.5 7.8 67 3.0 NW 20 32 11 17 - - 0.0
07/08:00am 12.9 10.0 8.2 73 2.3 NW 13 22 7 12 - - 0.0
07/07:30am 11.2 9.5 8.4 83 1.4 W 7 11 4 6 - - 0.0
07/07:00am 10.7 8.9 7.8 82 1.4 WNW 7 13 4 7 - - 0.0
07/06:30am 11.1 8.2 8.0 81 1.5 WNW 13 19 7 10 - - 0.0
07/06:00am 11.2 9.1 8.2 82 1.5 WNW 9 13 5 7 - - 0.0
07/05:30am 10.4 9.4 8.7 89 0.8 NW 4 6 2 3 - - 0.0
07/05:00am 11.7 9.7 8.6 81 1.5 NW 9 13 5 7 - - 0.0
07/04:30am 11.6 9.2 8.5 81 1.5 W 11 17 6 9 - - 0.0
07/04:00am 11.8 10.3 9.0 83 1.4 WNW 7 13 4 7 - - 0.0
07/03:30am 11.6 10.3 10.0 90 0.8 NW 7 11 4 6 - - 0.0
07/03:00am 12.3 11.9 12.3 100 0.0 W 6 9 3 5 - - 0.0
07/02:30am 12.8 12.5 12.8 100 0.0 W 6 7 3 4 - - 0.0
07/02:00am 12.3 12.3 12.3 100 0.0 W 4 6 2 3 - - 0.0
07/01:30am 13.2 12.8 12.9 98 0.2 W 7 9 4 5 - - 0.0
07/01:00am 13.0 12.4 12.4 96 0.3 W 7 9 4 5 - - 0.0
07/12:30am 13.8 12.8 13.3 97 0.3 W 11 13 6 7 - - 0.0
07/12:00am 13.6 12.8 13.0 96 0.3 SW 9 11 5 6 - - 0.0
 
Date/Time
EST
Temp
°C
App
Temp
°C
Dew
Point
°C
Rel
Hum
%
Delta-T
°C
Wind Press
QNH
hPa
Press
MSL
hPa
Rain since
9am
mm
Dir  Spd
km/h
Gust
km/h
Spd
kts
Gust
kts
06/11:30pm 14.0 13.9 13.4 96 0.3 SW 6 7 3 4 - - 0.0
06/11:00pm 14.0 13.9 13.2 95 0.4 SE 6 6 3 3 - - 0.0
06/10:30pm 14.9 15.3 13.6 92 0.7 SE 4 4 2 2 - - 0.0
06/10:00pm 16.1 16.5 13.8 86 1.3 SE 4 6 2 3 - - 0.0
06/09:30pm 16.7 16.7 13.6 82 1.8 SE 6 6 3 3 - - 0.0
06/09:00pm 16.6 16.6 13.7 83 1.6 SE 6 9 3 5 - - 0.0
06/08:30pm 17.1 16.7 14.0 82 1.8 ESE 9 13 5 7 - - 0.0
06/08:00pm 16.9 17.0 13.8 82 1.8 ESE 6 9 3 5 - - 0.0
06/07:30pm 17.3 17.2 13.8 80 2.0 ESE 7 13 4 7 - - 0.0
06/07:00pm 17.6 17.1 13.7 78 2.2 ESE 9 15 5 8 - - 0.0
06/06:30pm 17.9 16.5 13.4 75 2.6 ESE 13 17 7 9 - - 0.0

Other formats

Comma delimited format used in spreadsheet applications
http://www.bom.gov.au/fwo/IDN60801/IDN60801.99738.axf

JavaScript Object Notation format (JSON) in row-major order
http://www.bom.gov.au/fwo/IDN60801/IDN60801.99738.json

Data quality

Most of these data are generated automatically and are frequently updated. Quality checks on data are not normally performed. It is possible for incorrect values to appear. Refer to information at About Latest Weather Observations and please check the disclaimer before using these data.